Pagina principală
METAR-TAF:

METAR-TAF

Aeroporturi :

Santiago de Chile, Chile

Latitudine: 33-27-23S, longitudine: 070-32-48W, elevație: 646 m

Observații meteo curente

Raportul a fost făcut în urmă cu 7 ore și 39 de minute, la 22:00 UTC
Vânt 7 kt de la Sud-vest, variabil între Sud și Nord/Nord-vest
Temperatură 17°C
Umiditate 52%
Presiune 1013 hPa
Vizibilitate de 10 km sau mai mult
Nori împrăștiați la o înălțime de 7000 picior

METAR: SCTB 132200Z 22007KT 180V330 9999 SCT070 17/07 Q1013

Ora: 01:39 (05:39 UTC)


TAF: lipsă

Observații și prognoze meteo pentru peste 4.000 de aeroporturi (rapoarte METAR și TAF).

Stațiile disponibile sunt reprezentate pe hartă prin puncte galbene și roșii.

Țineți indicatorul mouse-ului pe punctul dorit pentru a vedea denumirea stației.

Apoi, faceți clic pentru a vedea observațiile și prognozele meteorologice.

Pentru a schimba harta: Pentru mărire, faceți clic pe butoanele verzi cu cruce neagră; pentru micșorare, pe butonul verde cu o liniuță; pentru hărți învecinate, pe săgețile verzi.


METAR-TAF: